Terminal Aerodrome Forecast
Issued by NWS

Home | Current Version | Previous Version | Text Only | Print | Product List | Glossary On
Versions: 1 2 3 4 5 6 7 8 9 10 11 12 13 14 15 16
167
FTAK31 PAJN 131140
TAFASI
TAF
PASI 131140Z 1312/1412 12010KT P6SM VCSH OVC045
     FM132100 11013KT 6SM -RA BR SCT030 BKN040 OVC060
     FM140200 12010G22KT 5SM -RA BKN025 OVC050=

USA.gov is the U.S. government's official web portal to all federal, state and local government web resources and services.